createdAt,value
2018-12-04T00:01:32.312Z,99.80
2018-12-04T00:04:00.779Z,99.80
2018-12-04T00:06:29.427Z,99.80
2018-12-04T00:08:58.249Z,99.80
2018-12-04T00:11:27.278Z,99.80
2018-12-04T00:13:55.680Z,99.80
2018-12-04T00:16:25.956Z,99.80
2018-12-04T00:18:54.579Z,99.80
2018-12-04T00:21:23.537Z,99.80
2018-12-04T00:23:52.254Z,99.80
2018-12-04T00:26:20.874Z,99.80
2018-12-04T00:31:50.249Z,99.80
2018-12-04T00:37:13.836Z,99.80
2018-12-04T00:39:56.898Z,99.80
2018-12-04T00:53:15.889Z,99.80
2018-12-04T00:55:48.843Z,99.80
2018-12-04T00:58:17.431Z,99.80
2018-12-04T02:00:15.125Z,99.80
2018-12-04T06:08:12.246Z,99.80
2018-12-04T06:10:42.333Z,99.80
2018-12-04T06:16:33.262Z,99.80
2018-12-04T06:21:45.778Z,99.80
2018-12-04T07:33:06.943Z,99.00
2018-12-04T07:35:38.643Z,99.80
2018-12-04T07:38:12.037Z,99.80
2018-12-04T07:40:42.034Z,99.80
2018-12-04T07:43:11.972Z,99.80
2018-12-04T07:45:41.886Z,98.30
2018-12-04T07:48:12.380Z,97.20
2018-12-04T07:50:42.530Z,97.70
2018-12-04T07:53:12.646Z,97.60
2018-12-04T08:20:41.735Z,97.70
2018-12-04T08:23:12.548Z,98.20
2018-12-04T08:25:45.705Z,98.50
2018-12-04T08:28:15.392Z,98.00
2018-12-04T09:19:31.626Z,95.30
2018-12-04T10:35:35.752Z,94.60
2018-12-04T11:15:52.012Z,91.70
2018-12-04T11:18:24.728Z,88.10
2018-12-04T11:20:55.547Z,90.10
2018-12-04T11:23:26.258Z,90.80
2018-12-04T11:29:34.620Z,90.30
2018-12-04T11:32:26.831Z,90.50
2018-12-04T11:35:02.972Z,90.50
2018-12-04T11:37:43.206Z,90.20
2018-12-04T11:40:18.530Z,89.30
2018-12-04T11:42:55.482Z,88.10
2018-12-04T11:45:40.171Z,87.00
2018-12-04T11:48:41.526Z,83.60
2018-12-04T11:51:16.815Z,83.50
2018-12-04T11:53:53.687Z,85.10
2018-12-04T11:56:25.876Z,84.60
2018-12-04T11:59:03.529Z,83.10
2018-12-04T12:01:42.671Z,84.70
2018-12-04T12:04:26.019Z,85.00
2018-12-04T12:07:03.142Z,85.00
2018-12-04T12:09:34.462Z,85.70
2018-12-04T12:12:04.456Z,80.40
2018-12-04T12:14:36.189Z,76.60
2018-12-04T12:17:08.249Z,69.70
2018-12-04T12:19:38.147Z,57.30
2018-12-04T12:22:06.630Z,51.70
2018-12-04T12:24:37.071Z,47.00
2018-12-04T12:27:08.039Z,40.40
2018-12-04T12:29:57.262Z,40.20
2018-12-04T12:32:27.098Z,40.70
2018-12-04T12:35:02.465Z,39.40
2018-12-04T12:37:35.909Z,38.30
2018-12-04T12:40:05.443Z,37.20
2018-12-04T12:42:38.047Z,36.50
2018-12-04T12:50:14.544Z,41.30
2018-12-04T12:52:44.529Z,49.70
2018-12-04T12:57:46.535Z,58.50
2018-12-04T13:00:15.891Z,59.90
2018-12-04T13:02:45.336Z,63.20
2018-12-04T13:05:16.236Z,66.80
2018-12-04T13:07:46.311Z,69.80
2018-12-04T13:10:18.839Z,71.00
2018-12-04T13:12:52.620Z,71.90
2018-12-04T13:15:23.981Z,73.80
2018-12-04T13:17:55.139Z,74.60
2018-12-04T13:20:25.798Z,75.40
2018-12-04T13:23:01.306Z,78.20
2018-12-04T13:25:31.748Z,79.30
2018-12-04T13:28:01.584Z,80.30
2018-12-04T13:30:34.138Z,82.50
2018-12-04T13:33:03.636Z,80.20
2018-12-04T13:35:34.285Z,81.90
2018-12-04T13:38:07.953Z,80.70
2018-12-04T13:40:37.054Z,80.80
2018-12-04T13:43:07.242Z,80.90
2018-12-04T13:45:41.951Z,81.60
2018-12-04T13:48:12.928Z,83.90
2018-12-04T13:50:44.621Z,83.30
2018-12-04T13:53:14.944Z,82.80
2018-12-04T13:55:48.182Z,78.90
2018-12-04T13:58:19.350Z,75.60
2018-12-04T14:03:41.276Z,65.10
2018-12-04T14:06:12.592Z,64.10
2018-12-04T14:08:41.921Z,68.00
2018-12-04T14:11:14.328Z,70.20
2018-12-04T14:13:46.272Z,73.10
2018-12-04T14:16:15.113Z,74.10
2018-12-04T14:18:43.495Z,75.90
2018-12-04T14:21:11.974Z,75.70
2018-12-04T14:23:41.540Z,79.00
2018-12-04T14:26:10.508Z,78.00
2018-12-04T14:28:39.475Z,79.90
2018-12-04T14:31:09.762Z,80.90
2018-12-04T14:33:42.573Z,81.50
2018-12-04T14:36:16.492Z,82.20
2018-12-04T14:38:48.119Z,81.30
2018-12-04T14:41:19.319Z,82.10
2018-12-04T14:43:50.605Z,80.30
2018-12-04T14:46:21.841Z,80.70
2018-12-04T14:48:54.849Z,80.80
2018-12-04T14:54:27.924Z,82.20
2018-12-04T14:57:01.546Z,82.70
2018-12-04T14:59:32.164Z,83.60
2018-12-04T15:02:02.261Z,84.50
2018-12-04T15:04:36.177Z,84.50
2018-12-04T15:07:11.432Z,85.40
2018-12-04T15:09:43.940Z,87.40
2018-12-04T15:12:15.497Z,89.70
2018-12-04T15:14:48.548Z,91.00
2018-12-04T15:17:25.898Z,90.60
2018-12-04T15:19:58.730Z,91.80
2018-12-04T15:22:30.871Z,93.20
2018-12-04T15:25:02.129Z,91.80
2018-12-04T15:27:33.603Z,92.90
2018-12-04T15:30:05.913Z,94.30
2018-12-04T15:32:42.784Z,94.50
2018-12-04T15:35:13.049Z,95.60
2018-12-04T15:37:43.755Z,95.10
2018-12-04T15:40:13.509Z,95.70
2018-12-04T15:42:44.545Z,95.70
2018-12-04T15:45:13.239Z,96.30
2018-12-04T15:47:42.350Z,96.30
2018-12-04T15:50:15.219Z,95.50
2018-12-04T15:52:43.621Z,96.00
2018-12-04T15:55:12.782Z,96.90
2018-12-04T15:57:46.510Z,97.60
2018-12-04T16:00:16.378Z,98.40
2018-12-04T16:02:45.548Z,98.00
2018-12-04T16:05:15.300Z,98.10
2018-12-04T16:07:45.245Z,99.00
2018-12-04T16:10:16.981Z,98.70
2018-12-04T16:12:47.091Z,99.40
2018-12-04T16:15:17.056Z,99.20
2018-12-04T16:17:47.075Z,99.60
2018-12-04T16:20:17.068Z,99.50
2018-12-04T16:38:13.263Z,99.80
2018-12-04T16:40:43.947Z,99.80
2018-12-04T16:43:14.126Z,99.80
2018-12-04T16:45:44.259Z,99.80
2018-12-04T16:48:13.663Z,99.80
2018-12-04T16:50:43.059Z,99.80
2018-12-04T16:53:38.799Z,99.80
2018-12-04T17:04:43.995Z,99.80
2018-12-04T17:07:17.817Z,99.80
2018-12-04T17:09:46.230Z,99.80
2018-12-04T17:12:15.595Z,99.80
2018-12-04T17:14:44.803Z,99.80
2018-12-04T17:17:14.370Z,99.80
2018-12-04T17:19:43.546Z,99.80
2018-12-04T17:22:19.815Z,99.80
2018-12-04T17:24:50.656Z,99.80
2018-12-04T17:27:24.368Z,99.80
2018-12-04T17:29:57.671Z,99.80
2018-12-04T17:32:35.796Z,99.80
2018-12-04T17:35:09.942Z,99.80
2018-12-04T17:37:39.308Z,99.80
2018-12-04T17:40:08.433Z,99.80
2018-12-04T17:42:37.504Z,99.80
2018-12-04T17:45:06.866Z,99.80
2018-12-04T17:47:35.272Z,99.80
2018-12-04T17:50:05.782Z,99.80
2018-12-04T17:52:34.512Z,99.80
2018-12-04T17:55:03.231Z,99.80
2018-12-04T17:57:32.110Z,99.80
2018-12-04T18:00:01.196Z,99.80
2018-12-04T18:02:31.578Z,99.80
2018-12-04T18:05:00.768Z,99.80
2018-12-04T18:07:29.702Z,99.80
2018-12-04T18:09:59.203Z,99.80
2018-12-04T18:12:28.416Z,99.80
2018-12-04T18:14:58.632Z,99.80
2018-12-04T18:17:27.904Z,99.80
2018-12-04T18:19:57.343Z,99.80
2018-12-04T18:22:26.796Z,99.80
2018-12-04T18:42:07.152Z,99.80
2018-12-04T18:45:26.405Z,99.80
2018-12-04T18:48:06.929Z,99.80
2018-12-04T18:50:52.993Z,99.80
2018-12-04T18:53:33.821Z,99.80
2018-12-04T18:56:10.632Z,99.80
2018-12-04T19:01:44.602Z,99.80
2018-12-04T19:04:23.201Z,99.80
2018-12-04T19:07:16.046Z,99.80
2018-12-04T19:09:56.705Z,99.80
2018-12-04T19:12:53.004Z,99.80
2018-12-04T19:15:38.658Z,99.80
2018-12-04T19:29:40.001Z,99.80
2018-12-04T19:44:46.933Z,99.80
2018-12-04T19:47:16.465Z,99.80
2018-12-04T19:49:45.510Z,99.80
2018-12-04T19:52:16.863Z,99.80
2018-12-04T20:28:44.781Z,99.80
2018-12-04T20:37:35.187Z,99.80
2018-12-04T21:36:05.746Z,99.80
2018-12-04T21:39:29.206Z,99.80
2018-12-04T21:57:22.524Z,99.80
2018-12-04T22:00:03.449Z,99.80
2018-12-04T22:02:45.825Z,99.80
2018-12-04T22:05:19.671Z,99.80
2018-12-04T22:10:40.519Z,99.80
2018-12-04T22:13:16.217Z,99.80
2018-12-04T22:15:52.043Z,99.80
2018-12-04T22:18:28.553Z,99.80
2018-12-04T22:21:23.817Z,99.80
2018-12-04T22:23:56.322Z,99.80
2018-12-04T22:26:31.400Z,99.80
2018-12-04T22:29:05.274Z,99.80
2018-12-04T22:31:41.432Z,99.80
2018-12-04T22:34:14.464Z,99.80
2018-12-04T22:36:54.388Z,99.80
2018-12-04T22:39:30.381Z,99.80
2018-12-04T22:42:05.564Z,99.80
2018-12-04T22:44:40.871Z,99.80
2018-12-04T22:47:17.482Z,99.80
2018-12-04T22:49:53.808Z,99.80
2018-12-04T22:52:27.142Z,99.80
2018-12-04T22:55:10.624Z,99.80
2018-12-04T22:57:49.691Z,99.80
2018-12-04T23:00:35.053Z,99.80
2018-12-04T23:03:10.627Z,99.80
2018-12-04T23:05:44.223Z,99.80
2018-12-04T23:08:18.688Z,99.80
2018-12-04T23:10:51.794Z,99.80
2018-12-04T23:13:29.486Z,99.80
2018-12-04T23:18:45.500Z,99.80
2018-12-04T23:21:22.453Z,99.80
2018-12-04T23:23:55.969Z,99.80
2018-12-04T23:26:35.834Z,99.80
2018-12-04T23:29:14.744Z,99.80
2018-12-04T23:31:48.623Z,99.80
2018-12-04T23:34:32.114Z,99.80
2018-12-04T23:37:12.612Z,99.80
2018-12-04T23:39:51.822Z,99.80
2018-12-04T23:42:29.364Z,99.80
2018-12-04T23:45:06.557Z,99.80
2018-12-04T23:47:42.182Z,99.80
2018-12-04T23:50:21.882Z,99.80
2018-12-04T23:55:57.436Z,99.80
2018-12-04T23:58:44.431Z,99.80
